sensor_id;sensor_type;location;lat;lon;timestamp;P1;durP1;ratioP1;P2;durP2;ratioP2
9322;SDS011;4700;48.822;9.270;2022-12-20T07:29:19;13.07;;;10.80;;
9322;SDS011;4700;48.822;9.270;2022-12-20T07:45:05;15.10;;;11.03;;
9322;SDS011;4700;48.822;9.270;2022-12-20T07:47:52;13.10;;;10.33;;
9322;SDS011;4700;48.822;9.270;2022-12-20T07:50:40;13.40;;;11.20;;
9322;SDS011;4700;48.822;9.270;2022-12-20T07:53:27;19.53;;;13.17;;
9322;SDS011;4700;48.822;9.270;2022-12-20T07:56:16;16.17;;;12.40;;
9322;SDS011;4700;48.822;9.270;2022-12-20T07:59:03;22.67;;;14.47;;
9322;SDS011;4700;48.822;9.270;2022-12-20T08:01:51;18.80;;;12.00;;
9322;SDS011;4700;48.822;9.270;2022-12-20T08:04:38;28.53;;;14.50;;
9322;SDS011;4700;48.822;9.270;2022-12-20T08:07:25;26.53;;;15.83;;
9322;SDS011;4700;48.822;9.270;2022-12-20T08:10:13;24.10;;;13.67;;
9322;SDS011;4700;48.822;9.270;2022-12-20T08:13:02;19.50;;;12.90;;
9322;SDS011;4700;48.822;9.270;2022-12-20T08:15:49;25.50;;;14.30;;
9322;SDS011;4700;48.822;9.270;2022-12-20T08:18:36;25.27;;;14.23;;
9322;SDS011;4700;48.822;9.270;2022-12-20T08:21:22;19.33;;;12.20;;
9322;SDS011;4700;48.822;9.270;2022-12-20T08:24:08;23.50;;;12.90;;
9322;SDS011;4700;48.822;9.270;2022-12-20T08:26:54;17.70;;;9.87;;
9322;SDS011;4700;48.822;9.270;2022-12-20T08:29:41;20.57;;;10.13;;
9322;SDS011;4700;48.822;9.270;2022-12-20T08:32:33;36.57;;;15.67;;
9322;SDS011;4700;48.822;9.270;2022-12-20T08:35:27;20.83;;;12.60;;
9322;SDS011;4700;48.822;9.270;2022-12-20T08:38:13;23.93;;;13.67;;
9322;SDS011;4700;48.822;9.270;2022-12-20T08:41:00;30.10;;;14.33;;
9322;SDS011;4700;48.822;9.270;2022-12-20T08:43:47;30.27;;;14.93;;
9322;SDS011;4700;48.822;9.270;2022-12-20T08:46:33;29.23;;;12.97;;
9322;SDS011;4700;48.822;9.270;2022-12-20T08:49:23;24.70;;;13.70;;
9322;SDS011;4700;48.822;9.270;2022-12-20T08:52:14;22.60;;;12.97;;
9322;SDS011;4700;48.822;9.270;2022-12-20T08:55:01;30.17;;;16.33;;
9322;SDS011;4700;48.822;9.270;2022-12-20T08:57:48;25.63;;;13.67;;
9322;SDS011;4700;48.822;9.270;2022-12-20T09:00:36;33.77;;;15.80;;
9322;SDS011;4700;48.822;9.270;2022-12-20T09:03:22;18.42;;;11.15;;
9322;SDS011;4700;48.822;9.270;2022-12-20T09:06:09;23.30;;;12.50;;
9322;SDS011;4700;48.822;9.270;2022-12-20T09:08:58;22.37;;;12.53;;
9322;SDS011;4700;48.822;9.270;2022-12-20T09:11:44;32.23;;;15.93;;
9322;SDS011;4700;48.822;9.270;2022-12-20T09:14:30;21.60;;;11.53;;
9322;SDS011;4700;48.822;9.270;2022-12-20T09:17:19;23.17;;;13.23;;
9322;SDS011;4700;48.822;9.270;2022-12-20T09:20:05;18.50;;;11.47;;
9322;SDS011;4700;48.822;9.270;2022-12-20T09:22:52;22.13;;;12.87;;
9322;SDS011;4700;48.822;9.270;2022-12-20T09:25:39;22.13;;;11.70;;
9322;SDS011;4700;48.822;9.270;2022-12-20T09:28:25;11.03;;;7.60;;
9322;SDS011;4700;48.822;9.270;2022-12-20T09:31:14;31.60;;;14.37;;
9322;SDS011;4700;48.822;9.270;2022-12-20T09:34:04;27.03;;;12.23;;
9322;SDS011;4700;48.822;9.270;2022-12-20T09:36:50;21.37;;;10.77;;
9322;SDS011;4700;48.822;9.270;2022-12-20T09:39:38;31.33;;;15.30;;
9322;SDS011;4700;48.822;9.270;2022-12-20T09:42:26;15.33;;;8.57;;
9322;SDS011;4700;48.822;9.270;2022-12-20T09:45:17;40.40;;;13.93;;
9322;SDS011;4700;48.822;9.270;2022-12-20T09:48:09;27.87;;;11.40;;
9322;SDS011;4700;48.822;9.270;2022-12-20T09:51:05;19.40;;;8.60;;
9322;SDS011;4700;48.822;9.270;2022-12-20T09:54:00;24.60;;;12.30;;
9322;SDS011;4700;48.822;9.270;2022-12-20T09:56:55;25.97;;;11.27;;
9322;SDS011;4700;48.822;9.270;2022-12-20T09:59:51;30.37;;;12.50;;
9322;SDS011;4700;48.822;9.270;2022-12-20T10:02:47;27.53;;;8.70;;
9322;SDS011;4700;48.822;9.270;2022-12-20T10:05:37;31.93;;;14.10;;
9322;SDS011;4700;48.822;9.270;2022-12-20T10:08:36;20.07;;;8.60;;
9322;SDS011;4700;48.822;9.270;2022-12-20T10:11:34;35.97;;;12.80;;
9322;SDS011;4700;48.822;9.270;2022-12-20T10:14:49;36.57;;;12.87;;
9322;SDS011;4700;48.822;9.270;2022-12-20T10:17:59;22.70;;;11.30;;
9322;SDS011;4700;48.822;9.270;2022-12-20T10:21:13;21.07;;;11.33;;
9322;SDS011;4700;48.822;9.270;2022-12-20T10:24:09;14.90;;;8.70;;
9322;SDS011;4700;48.822;9.270;2022-12-20T10:27:03;17.43;;;8.33;;
9322;SDS011;4700;48.822;9.270;2022-12-20T10:29:56;19.93;;;9.10;;
9322;SDS011;4700;48.822;9.270;2022-12-20T10:32:43;23.43;;;11.73;;
9322;SDS011;4700;48.822;9.270;2022-12-20T10:35:32;26.30;;;12.43;;
9322;SDS011;4700;48.822;9.270;2022-12-20T10:38:25;13.33;;;7.77;;
9322;SDS011;4700;48.822;9.270;2022-12-20T10:41:45;23.33;;;12.73;;
9322;SDS011;4700;48.822;9.270;2022-12-20T10:44:34;23.07;;;9.87;;
9322;SDS011;4700;48.822;9.270;2022-12-20T10:47:34;22.00;;;11.60;;
9322;SDS011;4700;48.822;9.270;2022-12-20T10:50:23;13.60;;;7.30;;
9322;SDS011;4700;48.822;9.270;2022-12-20T10:53:20;11.07;;;7.33;;
9322;SDS011;4700;48.822;9.270;2022-12-20T10:56:10;18.13;;;9.10;;
9322;SDS011;4700;48.822;9.270;2022-12-20T10:59:02;23.20;;;11.83;;
9322;SDS011;4700;48.822;9.270;2022-12-20T11:02:19;19.63;;;10.27;;
9322;SDS011;4700;48.822;9.270;2022-12-20T11:05:21;23.10;;;11.80;;
9322;SDS011;4700;48.822;9.270;2022-12-20T11:08:12;16.47;;;8.27;;
9322;SDS011;4700;48.822;9.270;2022-12-20T11:11:09;12.27;;;6.73;;
9322;SDS011;4700;48.822;9.270;2022-12-20T11:13:59;18.93;;;7.37;;
9322;SDS011;4700;48.822;9.270;2022-12-20T11:17:03;17.90;;;9.63;;
9322;SDS011;4700;48.822;9.270;2022-12-20T11:20:13;13.53;;;7.83;;
9322;SDS011;4700;48.822;9.270;2022-12-20T11:23:17;25.93;;;12.37;;
9322;SDS011;4700;48.822;9.270;2022-12-20T11:26:16;21.87;;;12.50;;
9322;SDS011;4700;48.822;9.270;2022-12-20T11:29:16;29.03;;;14.93;;
9322;SDS011;4700;48.822;9.270;2022-12-20T11:32:20;18.43;;;11.20;;
9322;SDS011;4700;48.822;9.270;2022-12-20T11:35:16;23.67;;;14.53;;
9322;SDS011;4700;48.822;9.270;2022-12-20T11:38:07;15.10;;;8.60;;
9322;SDS011;4700;48.822;9.270;2022-12-20T11:41:08;18.83;;;12.20;;
9322;SDS011;4700;48.822;9.270;2022-12-20T11:44:08;19.60;;;12.57;;
9322;SDS011;4700;48.822;9.270;2022-12-20T11:47:13;30.53;;;14.40;;
9322;SDS011;4700;48.822;9.270;2022-12-20T11:50:27;25.20;;;14.10;;
9322;SDS011;4700;48.822;9.270;2022-12-20T11:53:31;24.80;;;14.93;;
9322;SDS011;4700;48.822;9.270;2022-12-20T11:56:23;29.33;;;16.23;;
9322;SDS011;4700;48.822;9.270;2022-12-20T11:59:17;24.93;;;14.37;;
9322;SDS011;4700;48.822;9.270;2022-12-20T12:02:08;19.70;;;12.00;;
9322;SDS011;4700;48.822;9.270;2022-12-20T12:04:57;29.10;;;15.93;;
9322;SDS011;4700;48.822;9.270;2022-12-20T12:07:50;27.20;;;13.93;;
9322;SDS011;4700;48.822;9.270;2022-12-20T12:10:40;23.70;;;14.73;;
9322;SDS011;4700;48.822;9.270;2022-12-20T12:13:34;17.90;;;12.17;;
9322;SDS011;4700;48.822;9.270;2022-12-20T12:16:33;26.83;;;16.10;;
9322;SDS011;4700;48.822;9.270;2022-12-20T12:19:22;24.70;;;14.03;;
9322;SDS011;4700;48.822;9.270;2022-12-20T12:22:12;32.33;;;17.70;;
9322;SDS011;4700;48.822;9.270;2022-12-20T12:25:07;24.40;;;15.80;;
9322;SDS011;4700;48.822;9.270;2022-12-20T12:27:58;33.43;;;16.77;;
9322;SDS011;4700;48.822;9.270;2022-12-20T12:30:45;29.60;;;17.23;;
9322;SDS011;4700;48.822;9.270;2022-12-20T12:33:38;31.10;;;14.53;;
9322;SDS011;4700;48.822;9.270;2022-12-20T12:36:32;22.67;;;10.90;;
9322;SDS011;4700;48.822;9.270;2022-12-20T12:39:39;26.67;;;13.30;;
9322;SDS011;4700;48.822;9.270;2022-12-20T12:42:47;19.73;;;10.20;;
9322;SDS011;4700;48.822;9.270;2022-12-20T12:46:09;15.50;;;10.47;;
9322;SDS011;4700;48.822;9.270;2022-12-20T12:48:58;25.13;;;14.80;;
9322;SDS011;4700;48.822;9.270;2022-12-20T12:51:49;18.37;;;12.80;;
9322;SDS011;4700;48.822;9.270;2022-12-20T12:54:37;21.50;;;14.17;;
9322;SDS011;4700;48.822;9.270;2022-12-20T12:57:26;27.13;;;15.63;;
9322;SDS011;4700;48.822;9.270;2022-12-20T13:00:25;36.83;;;14.40;;
9322;SDS011;4700;48.822;9.270;2022-12-20T13:03:45;42.33;;;15.63;;
9322;SDS011;4700;48.822;9.270;2022-12-20T13:06:56;36.03;;;12.93;;
9322;SDS011;4700;48.822;9.270;2022-12-20T13:09:47;39.63;;;13.30;;
9322;SDS011;4700;48.822;9.270;2022-12-20T13:15:51;23.53;;;8.70;;
9322;SDS011;4700;48.822;9.270;2022-12-20T13:18:57;17.10;;;8.63;;
9322;SDS011;4700;48.822;9.270;2022-12-20T13:22:12;22.90;;;7.83;;
9322;SDS011;4700;48.822;9.270;2022-12-20T13:25:18;12.50;;;6.90;;
9322;SDS011;4700;48.822;9.270;2022-12-20T13:31:32;23.10;;;13.53;;
9322;SDS011;4700;48.822;9.270;2022-12-20T13:34:36;17.90;;;10.40;;
9322;SDS011;4700;48.822;9.270;2022-12-20T13:37:51;23.40;;;12.37;;
9322;SDS011;4700;48.822;9.270;2022-12-20T13:40:39;18.80;;;11.20;;
9322;SDS011;4700;48.822;9.270;2022-12-20T13:43:30;22.90;;;11.30;;
9322;SDS011;4700;48.822;9.270;2022-12-20T13:46:26;18.57;;;8.07;;
9322;SDS011;4700;48.822;9.270;2022-12-20T13:49:24;10.20;;;6.23;;
9322;SDS011;4700;48.822;9.270;2022-12-20T13:52:15;11.00;;;6.10;;
9322;SDS011;4700;48.822;9.270;2022-12-20T13:55:15;15.00;;;6.03;;
9322;SDS011;4700;48.822;9.270;2022-12-20T13:58:11;25.40;;;9.27;;
9322;SDS011;4700;48.822;9.270;2022-12-20T14:01:02;15.07;;;8.10;;
9322;SDS011;4700;48.822;9.270;2022-12-20T14:03:52;16.20;;;9.50;;
9322;SDS011;4700;48.822;9.270;2022-12-20T14:06:40;21.60;;;12.43;;
9322;SDS011;4700;48.822;9.270;2022-12-20T14:09:27;18.13;;;10.63;;
9322;SDS011;4700;48.822;9.270;2022-12-20T14:12:16;17.80;;;10.80;;
9322;SDS011;4700;48.822;9.270;2022-12-20T14:15:18;22.03;;;12.63;;
9322;SDS011;4700;48.822;9.270;2022-12-20T14:18:14;17.37;;;11.63;;
9322;SDS011;4700;48.822;9.270;2022-12-20T14:21:05;20.27;;;11.20;;
9322;SDS011;4700;48.822;9.270;2022-12-20T14:23:54;20.07;;;10.23;;
9322;SDS011;4700;48.822;9.270;2022-12-20T14:26:41;29.47;;;14.03;;
9322;SDS011;4700;48.822;9.270;2022-12-20T14:29:31;31.13;;;13.23;;
9322;SDS011;4700;48.822;9.270;2022-12-20T14:32:17;14.10;;;9.20;;
9322;SDS011;4700;48.822;9.270;2022-12-20T14:35:17;17.67;;;10.40;;
9322;SDS011;4700;48.822;9.270;2022-12-20T14:41:23;12.87;;;8.67;;
9322;SDS011;4700;48.822;9.270;2022-12-20T14:44:15;19.77;;;11.47;;
9322;SDS011;4700;48.822;9.270;2022-12-20T14:47:03;22.00;;;13.23;;
9322;SDS011;4700;48.822;9.270;2022-12-20T14:49:53;16.37;;;9.40;;
9322;SDS011;4700;48.822;9.270;2022-12-20T14:52:44;21.30;;;13.77;;
9322;SDS011;4700;48.822;9.270;2022-12-20T14:55:33;20.00;;;13.40;;
9322;SDS011;4700;48.822;9.270;2022-12-20T14:58:23;18.50;;;13.07;;
9322;SDS011;4700;48.822;9.270;2022-12-20T15:01:17;19.73;;;12.17;;
9322;SDS011;4700;48.822;9.270;2022-12-20T15:04:19;20.50;;;12.13;;
9322;SDS011;4700;48.822;9.270;2022-12-20T15:10:15;15.73;;;9.97;;
9322;SDS011;4700;48.822;9.270;2022-12-20T15:13:07;17.60;;;12.37;;
9322;SDS011;4700;48.822;9.270;2022-12-20T15:15:57;17.20;;;11.40;;
9322;SDS011;4700;48.822;9.270;2022-12-20T15:18:46;18.23;;;12.33;;
9322;SDS011;4700;48.822;9.270;2022-12-20T15:21:35;11.30;;;9.33;;
9322;SDS011;4700;48.822;9.270;2022-12-20T15:24:26;19.33;;;12.60;;
9322;SDS011;4700;48.822;9.270;2022-12-20T15:27:15;17.10;;;12.07;;
9322;SDS011;4700;48.822;9.270;2022-12-20T15:30:04;12.50;;;10.90;;
9322;SDS011;4700;48.822;9.270;2022-12-20T15:33:02;16.53;;;11.27;;
9322;SDS011;4700;48.822;9.270;2022-12-20T15:35:48;17.33;;;12.03;;
9322;SDS011;4700;48.822;9.270;2022-12-20T15:38:37;18.37;;;10.77;;
9322;SDS011;4700;48.822;9.270;2022-12-20T15:41:24;20.07;;;12.57;;
9322;SDS011;4700;48.822;9.270;2022-12-20T15:44:13;22.10;;;13.47;;
9322;SDS011;4700;48.822;9.270;2022-12-20T15:47:02;19.07;;;11.57;;
9322;SDS011;4700;48.822;9.270;2022-12-20T15:49:49;21.30;;;13.07;;
9322;SDS011;4700;48.822;9.270;2022-12-20T15:52:35;18.63;;;12.97;;
9322;SDS011;4700;48.822;9.270;2022-12-20T15:55:21;18.27;;;13.30;;
9322;SDS011;4700;48.822;9.270;2022-12-20T15:58:07;13.70;;;9.63;;
9322;SDS011;4700;48.822;9.270;2022-12-20T16:00:55;14.80;;;9.67;;
9322;SDS011;4700;48.822;9.270;2022-12-20T16:03:47;16.83;;;10.30;;
9322;SDS011;4700;48.822;9.270;2022-12-20T16:06:33;12.03;;;9.40;;
9322;SDS011;4700;48.822;9.270;2022-12-20T16:09:20;13.73;;;9.10;;
9322;SDS011;4700;48.822;9.270;2022-12-20T16:12:09;16.87;;;10.57;;
9322;SDS011;4700;48.822;9.270;2022-12-20T16:14:59;15.20;;;10.50;;
9322;SDS011;4700;48.822;9.270;2022-12-20T16:17:45;15.90;;;10.70;;
9322;SDS011;4700;48.822;9.270;2022-12-20T16:20:32;14.23;;;10.40;;
9322;SDS011;4700;48.822;9.270;2022-12-20T16:23:20;15.00;;;10.10;;
9322;SDS011;4700;48.822;9.270;2022-12-20T16:26:07;18.33;;;11.47;;
9322;SDS011;4700;48.822;9.270;2022-12-20T16:28:56;16.23;;;10.70;;
9322;SDS011;4700;48.822;9.270;2022-12-20T16:31:43;21.83;;;11.60;;
9322;SDS011;4700;48.822;9.270;2022-12-20T16:34:29;15.83;;;8.97;;
9322;SDS011;4700;48.822;9.270;2022-12-20T16:37:18;12.17;;;9.17;;
9322;SDS011;4700;48.822;9.270;2022-12-20T16:40:04;9.83;;;8.30;;
9322;SDS011;4700;48.822;9.270;2022-12-20T16:42:51;18.63;;;11.97;;
9322;SDS011;4700;48.822;9.270;2022-12-20T16:45:37;11.40;;;9.50;;
9322;SDS011;4700;48.822;9.270;2022-12-20T16:48:23;12.77;;;9.80;;
9322;SDS011;4700;48.822;9.270;2022-12-20T16:54:16;11.83;;;8.80;;
9322;SDS011;4700;48.822;9.270;2022-12-20T16:57:03;14.00;;;9.23;;
9322;SDS011;4700;48.822;9.270;2022-12-20T16:59:49;12.23;;;9.90;;
9322;SDS011;4700;48.822;9.270;2022-12-20T17:02:35;15.40;;;12.07;;
9322;SDS011;4700;48.822;9.270;2022-12-20T17:05:23;15.03;;;11.17;;
9322;SDS011;4700;48.822;9.270;2022-12-20T17:08:11;11.93;;;8.10;;
9322;SDS011;4700;48.822;9.270;2022-12-20T17:10:58;13.67;;;9.40;;
9322;SDS011;4700;48.822;9.270;2022-12-20T17:13:45;25.87;;;13.60;;
9322;SDS011;4700;48.822;9.270;2022-12-20T17:16:32;12.70;;;9.37;;
9322;SDS011;4700;48.822;9.270;2022-12-20T17:19:18;14.90;;;9.43;;
9322;SDS011;4700;48.822;9.270;2022-12-20T17:22:04;20.10;;;13.43;;
9322;SDS011;4700;48.822;9.270;2022-12-20T17:24:53;18.80;;;10.17;;
9322;SDS011;4700;48.822;9.270;2022-12-20T17:27:43;19.70;;;9.60;;
9322;SDS011;4700;48.822;9.270;2022-12-20T17:30:30;17.93;;;11.50;;
9322;SDS011;4700;48.822;9.270;2022-12-20T17:33:16;11.47;;;8.07;;
9322;SDS011;4700;48.822;9.270;2022-12-20T17:36:04;22.50;;;10.60;;
9322;SDS011;4700;48.822;9.270;2022-12-20T17:38:51;12.30;;;9.30;;
9322;SDS011;4700;48.822;9.270;2022-12-20T17:41:37;13.90;;;8.83;;
9322;SDS011;4700;48.822;9.270;2022-12-20T17:44:26;14.17;;;7.80;;
9322;SDS011;4700;48.822;9.270;2022-12-20T17:47:16;12.30;;;9.73;;
9322;SDS011;4700;48.822;9.270;2022-12-20T17:50:02;15.20;;;9.67;;
9322;SDS011;4700;48.822;9.270;2022-12-20T17:52:48;9.43;;;7.40;;
9322;SDS011;4700;48.822;9.270;2022-12-20T17:55:37;8.13;;;6.60;;
9322;SDS011;4700;48.822;9.270;2022-12-20T17:58:23;14.60;;;9.80;;
9322;SDS011;4700;48.822;9.270;2022-12-20T18:01:16;11.67;;;8.13;;
9322;SDS011;4700;48.822;9.270;2022-12-20T18:04:08;12.57;;;8.67;;
9322;SDS011;4700;48.822;9.270;2022-12-20T18:06:55;15.23;;;9.40;;
9322;SDS011;4700;48.822;9.270;2022-12-20T18:09:48;13.03;;;9.10;;
9322;SDS011;4700;48.822;9.270;2022-12-20T18:12:34;15.43;;;9.03;;
9322;SDS011;4700;48.822;9.270;2022-12-20T18:15:20;15.43;;;9.30;;
9322;SDS011;4700;48.822;9.270;2022-12-20T18:18:16;18.60;;;10.37;;
9322;SDS011;4700;48.822;9.270;2022-12-20T18:21:02;16.93;;;11.23;;
9322;SDS011;4700;48.822;9.270;2022-12-20T18:23:49;10.73;;;7.83;;
9322;SDS011;4700;48.822;9.270;2022-12-20T18:26:35;11.63;;;7.70;;
9322;SDS011;4700;48.822;9.270;2022-12-20T18:29:22;16.50;;;7.70;;
9322;SDS011;4700;48.822;9.270;2022-12-20T18:32:07;7.20;;;6.23;;
9322;SDS011;4700;48.822;9.270;2022-12-20T18:34:55;10.43;;;7.67;;
9322;SDS011;4700;48.822;9.270;2022-12-20T18:37:41;23.20;;;11.60;;
9322;SDS011;4700;48.822;9.270;2022-12-20T18:40:26;12.13;;;8.10;;
9322;SDS011;4700;48.822;9.270;2022-12-20T18:43:12;10.30;;;6.80;;
9322;SDS011;4700;48.822;9.270;2022-12-20T18:46:01;13.03;;;6.90;;
9322;SDS011;4700;48.822;9.270;2022-12-20T18:48:48;11.03;;;6.63;;
9322;SDS011;4700;48.822;9.270;2022-12-20T18:51:36;11.30;;;7.43;;
9322;SDS011;4700;48.822;9.270;2022-12-20T18:54:22;11.83;;;7.50;;
9322;SDS011;4700;48.822;9.270;2022-12-20T18:57:08;11.97;;;7.33;;
9322;SDS011;4700;48.822;9.270;2022-12-20T18:59:54;7.10;;;5.63;;
9322;SDS011;4700;48.822;9.270;2022-12-20T19:02:39;11.00;;;7.40;;
9322;SDS011;4700;48.822;9.270;2022-12-20T19:05:25;8.37;;;6.03;;
9322;SDS011;4700;48.822;9.270;2022-12-20T19:08:13;10.20;;;7.07;;
9322;SDS011;4700;48.822;9.270;2022-12-20T19:10:59;19.67;;;10.20;;
9322;SDS011;4700;48.822;9.270;2022-12-20T19:13:49;10.10;;;6.87;;
9322;SDS011;4700;48.822;9.270;2022-12-20T19:16:35;11.90;;;7.67;;
9322;SDS011;4700;48.822;9.270;2022-12-20T19:19:22;14.87;;;8.60;;
9322;SDS011;4700;48.822;9.270;2022-12-20T19:22:09;21.63;;;10.20;;
9322;SDS011;4700;48.822;9.270;2022-12-20T19:24:56;10.67;;;6.50;;
9322;SDS011;4700;48.822;9.270;2022-12-20T19:27:43;8.23;;;6.07;;
9322;SDS011;4700;48.822;9.270;2022-12-20T19:30:29;8.00;;;6.30;;
9322;SDS011;4700;48.822;9.270;2022-12-20T19:33:15;13.60;;;8.03;;
9322;SDS011;4700;48.822;9.270;2022-12-20T19:36:07;11.07;;;7.20;;
9322;SDS011;4700;48.822;9.270;2022-12-20T19:38:54;7.23;;;5.27;;
9322;SDS011;4700;48.822;9.270;2022-12-20T19:41:43;12.67;;;8.80;;
9322;SDS011;4700;48.822;9.270;2022-12-20T19:44:29;7.27;;;6.57;;
9322;SDS011;4700;48.822;9.270;2022-12-20T19:47:15;9.47;;;6.37;;
9322;SDS011;4700;48.822;9.270;2022-12-20T19:50:01;11.70;;;7.63;;
9322;SDS011;4700;48.822;9.270;2022-12-20T19:52:50;7.73;;;6.90;;
9322;SDS011;4700;48.822;9.270;2022-12-20T19:55:36;13.33;;;10.60;;
9322;SDS011;4700;48.822;9.270;2022-12-20T19:58:24;8.10;;;7.30;;
9322;SDS011;4700;48.822;9.270;2022-12-20T20:01:10;14.00;;;9.73;;
9322;SDS011;4700;48.822;9.270;2022-12-20T20:03:56;9.53;;;7.70;;
9322;SDS011;4700;48.822;9.270;2022-12-20T20:06:43;13.20;;;8.60;;
9322;SDS011;4700;48.822;9.270;2022-12-20T20:09:28;18.33;;;10.90;;
9322;SDS011;4700;48.822;9.270;2022-12-20T20:12:14;14.10;;;10.33;;
9322;SDS011;4700;48.822;9.270;2022-12-20T20:15:02;14.00;;;9.73;;
9322;SDS011;4700;48.822;9.270;2022-12-20T20:17:49;16.40;;;8.10;;
9322;SDS011;4700;48.822;9.270;2022-12-20T20:20:38;12.73;;;8.73;;
9322;SDS011;4700;48.822;9.270;2022-12-20T20:23:25;9.47;;;7.20;;
9322;SDS011;4700;48.822;9.270;2022-12-20T20:26:12;16.40;;;9.80;;
9322;SDS011;4700;48.822;9.270;2022-12-20T20:28:59;15.97;;;12.53;;
9322;SDS011;4700;48.822;9.270;2022-12-20T20:31:51;15.07;;;11.20;;
9322;SDS011;4700;48.822;9.270;2022-12-20T20:34:37;11.23;;;10.13;;
9322;SDS011;4700;48.822;9.270;2022-12-20T20:37:22;10.27;;;9.23;;
9322;SDS011;4700;48.822;9.270;2022-12-20T20:40:08;13.17;;;10.80;;
9322;SDS011;4700;48.822;9.270;2022-12-20T20:42:55;13.70;;;9.23;;
9322;SDS011;4700;48.822;9.270;2022-12-20T20:45:42;14.70;;;12.00;;
9322;SDS011;4700;48.822;9.270;2022-12-20T20:48:29;18.70;;;12.87;;
9322;SDS011;4700;48.822;9.270;2022-12-20T20:51:12;16.20;;;12.00;;
9322;SDS011;4700;48.822;9.270;2022-12-20T20:53:58;14.40;;;11.20;;
9322;SDS011;4700;48.822;9.270;2022-12-20T20:56:44;15.40;;;12.27;;
9322;SDS011;4700;48.822;9.270;2022-12-20T20:59:30;11.57;;;10.40;;
9322;SDS011;4700;48.822;9.270;2022-12-20T21:02:16;13.07;;;9.87;;
9322;SDS011;4700;48.822;9.270;2022-12-20T21:23:09;7.97;;;7.07;;
9322;SDS011;4700;48.822;9.270;2022-12-20T21:25:56;11.13;;;7.90;;
9322;SDS011;4700;48.822;9.270;2022-12-20T21:28:43;8.13;;;7.27;;
9322;SDS011;4700;48.822;9.270;2022-12-20T21:31:30;6.57;;;5.87;;
9322;SDS011;4700;48.822;9.270;2022-12-20T21:34:19;7.43;;;5.80;;
9322;SDS011;4700;48.822;9.270;2022-12-20T21:37:06;9.10;;;6.90;;
9322;SDS011;4700;48.822;9.270;2022-12-20T21:39:55;10.90;;;6.10;;
9322;SDS011;4700;48.822;9.270;2022-12-20T21:42:42;10.00;;;6.47;;
9322;SDS011;4700;48.822;9.270;2022-12-20T21:45:32;8.87;;;7.17;;
9322;SDS011;4700;48.822;9.270;2022-12-20T21:48:19;9.37;;;6.57;;
9322;SDS011;4700;48.822;9.270;2022-12-20T21:51:06;7.60;;;6.43;;
9322;SDS011;4700;48.822;9.270;2022-12-20T21:53:53;10.87;;;7.10;;
9322;SDS011;4700;48.822;9.270;2022-12-20T21:56:44;6.40;;;5.40;;
9322;SDS011;4700;48.822;9.270;2022-12-20T21:59:31;6.03;;;5.53;;
9322;SDS011;4700;48.822;9.270;2022-12-20T22:02:17;9.70;;;7.27;;
9322;SDS011;4700;48.822;9.270;2022-12-20T22:05:03;7.13;;;5.93;;
9322;SDS011;4700;48.822;9.270;2022-12-20T22:07:49;6.60;;;6.00;;
9322;SDS011;4700;48.822;9.270;2022-12-20T22:10:38;6.13;;;5.53;;
9322;SDS011;4700;48.822;9.270;2022-12-20T22:13:28;7.70;;;6.20;;
9322;SDS011;4700;48.822;9.270;2022-12-20T22:16:16;9.93;;;6.70;;
9322;SDS011;4700;48.822;9.270;2022-12-20T22:19:03;8.10;;;6.73;;
9322;SDS011;4700;48.822;9.270;2022-12-20T22:21:52;9.50;;;6.90;;
9322;SDS011;4700;48.822;9.270;2022-12-20T22:24:39;7.10;;;6.50;;
9322;SDS011;4700;48.822;9.270;2022-12-20T22:27:27;7.30;;;6.20;;
9322;SDS011;4700;48.822;9.270;2022-12-20T22:35:26;12.83;;;7.17;;
9322;SDS011;4700;48.822;9.270;2022-12-20T22:38:15;6.90;;;6.30;;
9322;SDS011;4700;48.822;9.270;2022-12-20T22:41:05;6.73;;;6.13;;
9322;SDS011;4700;48.822;9.270;2022-12-20T22:43:53;9.20;;;7.30;;
9322;SDS011;4700;48.822;9.270;2022-12-20T22:46:41;6.73;;;6.13;;
9322;SDS011;4700;48.822;9.270;2022-12-20T22:49:27;6.50;;;5.83;;
9322;SDS011;4700;48.822;9.270;2022-12-20T22:52:15;7.37;;;6.53;;
9322;SDS011;4700;48.822;9.270;2022-12-20T22:55:05;7.40;;;6.33;;
9322;SDS011;4700;48.822;9.270;2022-12-20T22:57:52;6.37;;;5.73;;
9322;SDS011;4700;48.822;9.270;2022-12-20T23:00:39;6.97;;;6.37;;
9322;SDS011;4700;48.822;9.270;2022-12-20T23:03:26;5.93;;;4.90;;
9322;SDS011;4700;48.822;9.270;2022-12-20T23:06:13;5.73;;;5.23;;
9322;SDS011;4700;48.822;9.270;2022-12-20T23:09:01;5.83;;;4.83;;
9322;SDS011;4700;48.822;9.270;2022-12-20T23:11:47;11.03;;;7.47;;
9322;SDS011;4700;48.822;9.270;2022-12-20T23:14:51;11.73;;;5.37;;
9322;SDS011;4700;48.822;9.270;2022-12-20T23:17:57;8.47;;;6.20;;
9322;SDS011;4700;48.822;9.270;2022-12-20T23:20:47;10.40;;;6.40;;
9322;SDS011;4700;48.822;9.270;2022-12-20T23:23:51;5.93;;;5.33;;
9322;SDS011;4700;48.822;9.270;2022-12-20T23:26:39;6.60;;;5.83;;
9322;SDS011;4700;48.822;9.270;2022-12-20T23:29:25;7.83;;;6.50;;
9322;SDS011;4700;48.822;9.270;2022-12-20T23:32:13;6.23;;;5.63;;
9322;SDS011;4700;48.822;9.270;2022-12-20T23:34:59;6.23;;;4.80;;
9322;SDS011;4700;48.822;9.270;2022-12-20T23:37:45;8.53;;;6.60;;
9322;SDS011;4700;48.822;9.270;2022-12-20T23:40:32;10.13;;;6.80;;
9322;SDS011;4700;48.822;9.270;2022-12-20T23:43:19;5.77;;;5.17;;
9322;SDS011;4700;48.822;9.270;2022-12-20T23:46:05;9.37;;;5.50;;
9322;SDS011;4700;48.822;9.270;2022-12-20T23:48:52;5.53;;;5.03;;
9322;SDS011;4700;48.822;9.270;2022-12-20T23:51:38;7.67;;;5.83;;
9322;SDS011;4700;48.822;9.270;2022-12-20T23:54:25;7.87;;;6.10;;
9322;SDS011;4700;48.822;9.270;2022-12-20T23:57:11;6.43;;;5.80;;
9322;SDS011;4700;48.822;9.270;2022-12-20T23:59:58;6.00;;;5.40;;
